createdAt,value
2023-02-03T00:00:34.081Z,26.30
2023-02-03T00:03:03.055Z,26.10
2023-02-03T00:05:33.296Z,26.00
2023-02-03T00:08:03.080Z,24.70
2023-02-03T00:10:35.018Z,25.50
2023-02-03T00:13:03.105Z,25.80
2023-02-03T00:15:31.551Z,24.80
2023-02-03T00:17:59.759Z,23.90
2023-02-03T00:20:29.459Z,21.00
2023-02-03T00:23:08.583Z,24.10
2023-02-03T00:25:37.449Z,21.90
2023-02-03T00:28:07.710Z,20.90
2023-02-03T00:30:36.686Z,23.50
2023-02-03T00:33:05.250Z,23.60
2023-02-03T00:35:35.952Z,23.20
2023-02-03T00:38:06.556Z,22.10
2023-02-03T00:40:36.286Z,20.80
2023-02-03T00:43:04.822Z,20.20
2023-02-03T00:45:34.242Z,19.70
2023-02-03T00:48:03.621Z,21.10
2023-02-03T00:50:32.715Z,23.30
2023-02-03T00:53:01.206Z,25.00
2023-02-03T00:55:29.568Z,25.40
2023-02-03T00:58:00.259Z,24.40
2023-02-03T01:00:29.401Z,25.20
2023-02-03T01:02:58.573Z,23.60
2023-02-03T01:05:27.380Z,25.40
2023-02-03T01:07:57.677Z,22.10
2023-02-03T01:10:25.955Z,26.90
2023-02-03T01:12:57.291Z,26.20
2023-02-03T01:15:26.102Z,25.50
2023-02-03T01:17:57.374Z,26.50
2023-02-03T01:20:26.973Z,22.20
2023-02-03T01:22:55.256Z,24.50
2023-02-03T01:25:24.275Z,22.20
2023-02-03T01:27:53.495Z,24.40
2023-02-03T01:30:21.780Z,25.40
2023-02-03T01:32:49.916Z,27.80
2023-02-03T01:35:18.236Z,27.90
2023-02-03T01:37:46.698Z,25.70
2023-02-03T01:40:14.838Z,26.20
2023-02-03T01:42:43.096Z,26.60
2023-02-03T01:45:13.470Z,27.60
2023-02-03T01:47:54.048Z,24.10
2023-02-03T01:50:31.320Z,30.60
2023-02-03T01:53:04.585Z,36.50
2023-02-03T01:58:19.796Z,30.80
2023-02-03T02:00:50.545Z,25.60
2023-02-03T02:03:24.328Z,27.70
2023-02-03T02:05:56.800Z,24.30
2023-02-03T02:08:24.799Z,25.20
2023-02-03T02:10:52.792Z,24.90
2023-02-03T02:50:52.535Z,19.90
2023-02-03T02:53:22.726Z,22.20
2023-02-03T02:55:52.565Z,23.10
2023-02-03T02:58:21.378Z,27.00
2023-02-03T03:00:49.800Z,24.50
2023-02-03T03:03:21.247Z,25.30
2023-02-03T03:05:55.428Z,23.70
2023-02-03T03:08:50.118Z,23.60
2023-02-03T03:11:18.252Z,19.80
2023-02-03T03:13:49.741Z,21.60
2023-02-03T03:16:19.737Z,22.10
2023-02-03T03:18:49.783Z,24.90
2023-02-03T03:21:23.183Z,22.00
2023-02-03T03:23:51.799Z,20.50
2023-02-03T03:26:32.975Z,23.80
2023-02-03T03:29:09.350Z,24.30
2023-02-03T03:31:37.667Z,22.60
2023-02-03T03:34:06.022Z,23.80
2023-02-03T03:36:43.038Z,25.50
2023-02-03T03:39:21.519Z,24.50
2023-02-03T03:42:23.727Z,25.80
2023-02-03T03:45:02.622Z,23.70
2023-02-03T03:47:41.902Z,27.90
2023-02-03T03:50:12.822Z,24.40
2023-02-03T03:52:41.152Z,25.80
2023-02-03T03:55:11.070Z,26.40
2023-02-03T03:57:45.737Z,24.60
2023-02-03T04:00:16.062Z,23.80
2023-02-03T04:02:44.930Z,27.90
2023-02-03T04:05:13.383Z,23.60
2023-02-03T04:07:43.211Z,25.80
2023-02-03T04:10:29.187Z,24.50
2023-02-03T04:12:57.784Z,27.10
2023-02-03T04:15:25.964Z,23.00
2023-02-03T04:17:57.337Z,24.70
2023-02-03T04:20:25.906Z,25.00
2023-02-03T04:22:54.221Z,25.90
2023-02-03T04:25:22.357Z,26.40
2023-02-03T04:27:51.005Z,29.00
2023-02-03T04:30:19.066Z,28.50
2023-02-03T04:32:47.461Z,25.40
2023-02-03T04:35:15.624Z,26.40
2023-02-03T04:37:44.809Z,21.60
2023-02-03T04:40:12.928Z,26.10
2023-02-03T04:42:41.316Z,26.00
2023-02-03T04:45:10.451Z,25.10
2023-02-03T04:47:40.602Z,24.60
2023-02-03T04:50:09.149Z,25.80
2023-02-03T04:52:37.194Z,22.40
2023-02-03T04:55:05.797Z,25.60
2023-02-03T04:57:35.620Z,26.40
2023-02-03T05:00:03.991Z,25.20
2023-02-03T05:02:33.625Z,24.40
2023-02-03T05:05:01.696Z,26.30
2023-02-03T05:07:29.793Z,27.30
2023-02-03T05:09:57.823Z,25.30
2023-02-03T05:12:26.591Z,26.60
2023-02-03T05:14:55.669Z,24.10
2023-02-03T05:17:23.866Z,24.00
2023-02-03T05:19:51.905Z,24.60
2023-02-03T05:22:20.122Z,25.40
2023-02-03T05:24:48.113Z,26.40
2023-02-03T05:27:16.093Z,23.70
2023-02-03T05:29:44.116Z,24.00
2023-02-03T05:32:12.119Z,21.30
2023-02-03T05:34:42.292Z,19.90
2023-02-03T05:37:10.444Z,22.90
2023-02-03T05:39:38.779Z,20.50
2023-02-03T05:42:07.182Z,20.10
2023-02-03T05:44:35.680Z,20.10
2023-02-03T05:47:03.639Z,21.10
2023-02-03T05:49:35.664Z,22.20
2023-02-03T05:52:06.768Z,22.50
2023-02-03T05:54:34.960Z,22.60
2023-02-03T05:57:03.030Z,19.40
2023-02-03T05:59:31.005Z,18.70
2023-02-03T06:01:59.187Z,21.00
2023-02-03T06:04:27.266Z,19.40
2023-02-03T06:06:55.373Z,22.20
2023-02-03T06:09:23.338Z,19.10
2023-02-03T06:11:52.882Z,19.30
2023-02-03T06:14:21.180Z,19.90
2023-02-03T06:16:49.551Z,20.10
2023-02-03T06:19:19.013Z,17.80
2023-02-03T06:21:47.178Z,17.80
2023-02-03T06:24:15.406Z,17.30
2023-02-03T06:26:43.428Z,17.70
2023-02-03T06:29:11.567Z,16.50
2023-02-03T06:31:39.741Z,16.00
2023-02-03T06:34:08.978Z,15.00
2023-02-03T06:36:37.044Z,16.00
2023-02-03T06:39:05.146Z,16.10
2023-02-03T06:41:33.220Z,14.10
2023-02-03T06:44:01.191Z,15.20
2023-02-03T06:46:30.560Z,18.50
2023-02-03T06:48:58.864Z,16.60
2023-02-03T06:51:27.998Z,13.80
2023-02-03T06:53:58.956Z,14.60
2023-02-03T06:56:27.040Z,12.60
2023-02-03T06:58:55.037Z,12.80
2023-02-03T07:01:23.390Z,14.40
2023-02-03T07:03:51.965Z,10.70
2023-02-03T07:06:20.029Z,13.90
2023-02-03T07:08:48.009Z,12.30
2023-02-03T07:11:16.921Z,10.80
2023-02-03T07:13:45.249Z,10.70
2023-02-03T07:16:13.862Z,12.90
2023-02-03T07:18:49.196Z,12.60
2023-02-03T07:21:17.495Z,12.20
2023-02-03T07:23:49.552Z,11.40
2023-02-03T07:26:18.607Z,11.90
2023-02-03T07:28:49.034Z,9.10
2023-02-03T07:31:17.243Z,8.50
2023-02-03T07:33:45.475Z,8.60
2023-02-03T07:36:13.679Z,8.40
2023-02-03T07:38:41.925Z,7.40
2023-02-03T07:41:10.343Z,8.10
2023-02-03T07:43:39.274Z,7.70
2023-02-03T07:46:08.581Z,6.40
2023-02-03T07:48:38.528Z,5.80
2023-02-03T07:51:06.811Z,6.40
2023-02-03T07:53:35.839Z,5.60
2023-02-03T07:56:04.780Z,4.60
2023-02-03T07:58:32.955Z,3.60
2023-02-03T08:01:01.146Z,4.40
2023-02-03T08:03:30.772Z,4.00
2023-02-03T08:06:01.590Z,7.10
2023-02-03T08:08:29.666Z,3.50
2023-02-03T08:10:58.159Z,2.60
2023-02-03T08:13:26.748Z,3.50
2023-02-03T08:15:57.921Z,3.60
2023-02-03T08:18:25.950Z,3.00
2023-02-03T08:20:54.514Z,2.70
2023-02-03T08:23:22.586Z,2.70
2023-02-03T08:25:52.135Z,3.10
2023-02-03T08:28:20.412Z,3.40
2023-02-03T08:30:49.025Z,3.00
2023-02-03T08:33:17.945Z,3.50
2023-02-03T08:35:48.333Z,2.90
2023-02-03T08:38:16.797Z,2.60
2023-02-03T08:40:45.100Z,2.60
2023-02-03T08:43:16.040Z,3.10
2023-02-03T08:45:46.546Z,2.80
2023-02-03T08:48:18.475Z,2.70
2023-02-03T08:50:52.895Z,2.40
2023-02-03T08:53:22.988Z,3.40
2023-02-03T08:55:52.503Z,3.50
2023-02-03T08:58:21.654Z,2.80
2023-02-03T09:00:50.056Z,3.50
2023-02-03T09:03:18.363Z,3.10
2023-02-03T09:05:47.054Z,3.30
2023-02-03T09:08:17.592Z,7.00
2023-02-03T09:10:47.569Z,4.00
2023-02-03T09:13:19.797Z,4.20
2023-02-03T09:15:49.871Z,4.00
2023-02-03T09:18:18.338Z,3.70
2023-02-03T09:20:47.474Z,4.00
2023-02-03T09:23:18.060Z,3.30
2023-02-03T09:25:49.871Z,3.50
2023-02-03T09:28:18.361Z,3.70
2023-02-03T09:30:47.718Z,4.50
2023-02-03T09:33:19.072Z,4.10
2023-02-03T09:35:54.616Z,3.80
2023-02-03T09:38:22.884Z,4.20
2023-02-03T09:41:11.294Z,4.70
2023-02-03T12:07:05.217Z,6.40
2023-02-03T12:10:22.665Z,8.00
2023-02-03T12:12:57.938Z,8.10
2023-02-03T12:15:34.672Z,5.70
2023-02-03T12:24:36.002Z,5.90
2023-02-03T12:27:23.239Z,4.30
2023-02-03T12:30:03.732Z,5.20
2023-02-03T12:32:55.830Z,5.30
2023-02-03T12:35:32.132Z,7.00
2023-02-03T12:38:16.400Z,6.40
2023-02-03T12:41:01.923Z,6.00
2023-02-03T12:43:33.455Z,4.90
2023-02-03T12:46:05.787Z,5.80
2023-02-03T12:48:52.305Z,6.60
2023-02-03T12:51:49.911Z,5.00
2023-02-03T12:54:39.241Z,6.00
2023-02-03T12:57:24.885Z,4.60
2023-02-03T13:00:01.899Z,5.60
2023-02-03T13:02:33.285Z,5.20
2023-02-03T13:05:16.128Z,5.10
2023-02-03T13:07:52.505Z,5.30
2023-02-03T13:10:32.502Z,4.60
2023-02-03T13:13:00.873Z,4.70
2023-02-03T13:15:53.565Z,6.00
2023-02-03T13:18:31.677Z,5.10
2023-02-03T13:20:59.701Z,4.50
2023-02-03T13:23:27.971Z,4.60
2023-02-03T13:26:17.669Z,5.40
2023-02-03T13:29:04.845Z,5.10
2023-02-03T13:31:45.177Z,4.10
2023-02-03T13:34:55.095Z,4.20
2023-02-03T13:37:31.099Z,4.70
2023-02-03T13:40:17.815Z,4.70
2023-02-03T13:42:48.319Z,6.10
2023-02-03T13:45:34.293Z,4.40
2023-02-03T13:48:43.860Z,6.10
2023-02-03T13:51:22.779Z,7.00
2023-02-03T13:53:51.683Z,5.60
2023-02-03T13:56:24.017Z,6.70
2023-02-03T13:59:14.801Z,5.20
2023-02-03T14:01:45.833Z,5.60
2023-02-03T14:04:23.987Z,7.10
2023-02-03T14:07:26.256Z,5.00
2023-02-03T14:10:14.085Z,5.30
2023-02-03T14:12:51.347Z,4.20
2023-02-03T14:15:22.400Z,4.60
2023-02-03T14:17:50.919Z,3.80
2023-02-03T14:20:25.324Z,3.90
2023-02-03T14:22:54.387Z,3.40
2023-02-03T14:25:24.769Z,4.00
2023-02-03T14:28:00.243Z,3.90
2023-02-03T14:30:28.440Z,3.90
2023-02-03T14:33:00.524Z,4.10
2023-02-03T14:35:32.246Z,4.00
2023-02-03T14:38:05.264Z,3.40
2023-02-03T14:40:39.421Z,4.10
2023-02-03T14:43:45.592Z,5.00
2023-02-03T14:46:22.698Z,4.90
2023-02-03T14:49:20.792Z,5.60
2023-02-03T14:52:10.853Z,4.00
2023-02-03T14:55:01.321Z,4.40
2023-02-03T14:57:49.272Z,3.30
2023-02-03T15:00:20.452Z,3.50
2023-02-03T15:03:10.254Z,3.20
2023-02-03T15:05:43.489Z,3.90
2023-02-03T15:10:59.253Z,2.80
2023-02-03T15:13:31.446Z,3.30
2023-02-03T15:16:04.496Z,3.30
2023-02-03T15:18:36.328Z,3.20
2023-02-03T15:21:04.564Z,3.00
2023-02-03T15:23:43.218Z,3.00
2023-02-03T15:26:14.033Z,3.20
2023-02-03T15:28:42.708Z,4.80
2023-02-03T15:31:20.458Z,4.10
2023-02-03T15:33:50.121Z,3.80
2023-02-03T15:36:21.976Z,3.90
2023-02-03T15:38:57.095Z,4.10
2023-02-03T15:41:26.063Z,4.90
2023-02-03T15:44:00.315Z,4.00
2023-02-03T15:46:33.276Z,4.70
2023-02-03T15:51:36.320Z,6.10
2023-02-03T15:54:19.261Z,3.90
2023-02-03T15:56:55.093Z,4.40
2023-02-03T15:59:43.030Z,4.20
2023-02-03T16:02:33.452Z,4.60
2023-02-03T16:05:06.652Z,4.30
2023-02-03T16:10:30.677Z,3.60
2023-02-03T16:13:20.012Z,4.00
2023-02-03T16:16:12.167Z,4.30
2023-02-03T16:18:40.476Z,4.10
2023-02-03T16:21:27.571Z,3.90
2023-02-03T16:23:55.706Z,3.80
2023-02-03T16:26:28.217Z,3.80
2023-02-03T16:29:27.023Z,3.80
2023-02-03T16:32:14.293Z,3.80
2023-02-03T16:35:01.361Z,3.90
2023-02-03T16:37:52.054Z,3.90
2023-02-03T16:40:40.768Z,4.40
2023-02-03T16:43:32.889Z,4.70
2023-02-03T16:46:19.766Z,4.60
2023-02-03T16:49:06.711Z,5.50
2023-02-03T16:51:39.352Z,4.90
2023-02-03T16:56:39.226Z,4.60
2023-02-03T16:59:07.220Z,4.60
2023-02-03T17:01:37.081Z,4.70
2023-02-03T17:04:05.517Z,6.30
2023-02-03T17:06:38.140Z,5.40
2023-02-03T17:09:06.841Z,5.50
2023-02-03T17:11:34.875Z,5.70
2023-02-03T17:14:03.727Z,4.70
2023-02-03T17:16:33.423Z,5.70
2023-02-03T17:19:01.603Z,6.00
2023-02-03T17:21:30.124Z,6.80
2023-02-03T17:23:59.705Z,6.00
2023-02-03T17:26:28.295Z,6.60
2023-02-03T17:28:58.742Z,5.20
2023-02-03T17:31:27.401Z,5.90
2023-02-03T17:33:56.548Z,5.30
2023-02-03T17:36:24.877Z,5.50
2023-02-03T17:55:32.073Z,6.50
2023-02-03T17:58:00.415Z,6.20
2023-02-03T18:00:29.021Z,6.70
2023-02-03T19:37:26.800Z,8.00
2023-02-03T19:39:55.100Z,8.90
2023-02-03T19:42:23.388Z,8.80
2023-02-03T19:44:52.080Z,8.00
2023-02-03T19:47:20.271Z,8.40
2023-02-03T19:49:49.510Z,7.50
2023-02-03T19:52:17.639Z,6.70
2023-02-03T19:54:47.422Z,6.90
2023-02-03T19:57:15.393Z,7.10
2023-02-03T19:59:45.941Z,7.10
2023-02-03T20:02:27.103Z,7.30
2023-02-03T20:04:55.951Z,6.50
2023-02-03T20:07:28.771Z,6.40
2023-02-03T20:09:58.137Z,5.70
2023-02-03T20:12:26.205Z,6.60
2023-02-03T20:14:56.089Z,6.20
2023-02-03T20:17:24.755Z,6.00
2023-02-03T20:19:52.769Z,5.90
2023-02-03T20:22:21.428Z,6.50
2023-02-03T20:24:49.821Z,4.50
2023-02-03T20:27:18.077Z,6.30
2023-02-03T20:29:47.686Z,4.70
2023-02-03T20:32:16.011Z,7.00
2023-02-03T20:34:45.661Z,6.70
2023-02-03T20:37:15.227Z,7.60
2023-02-03T20:39:45.313Z,5.50
2023-02-03T20:42:16.718Z,6.80
2023-02-03T20:44:45.705Z,7.00
2023-02-03T20:47:17.611Z,7.20
2023-02-03T20:49:46.509Z,7.30
2023-02-03T20:52:16.837Z,7.80
2023-02-03T20:54:46.523Z,5.20
2023-02-03T20:57:17.664Z,6.70
2023-02-03T20:59:46.306Z,5.40
2023-02-03T21:02:23.431Z,5.70
2023-02-03T21:04:58.002Z,5.90
2023-02-03T21:07:30.900Z,5.40
2023-02-03T21:10:00.024Z,6.20
2023-02-03T21:12:28.889Z,5.60
2023-02-03T21:14:59.414Z,5.40
2023-02-03T21:17:27.901Z,5.90
2023-02-03T21:19:56.445Z,4.60
2023-02-03T21:22:26.437Z,4.90
2023-02-03T21:24:57.114Z,4.80
2023-02-03T21:27:29.968Z,4.50
2023-02-03T21:29:58.948Z,4.90
2023-02-03T21:32:37.411Z,4.80
2023-02-03T21:35:37.226Z,5.00
2023-02-03T21:38:37.824Z,4.50
2023-02-03T21:47:16.054Z,3.90
2023-02-03T21:49:44.224Z,4.40
2023-02-03T21:52:15.488Z,4.10
2023-02-03T21:54:44.635Z,4.30
2023-02-03T21:57:14.311Z,5.80
2023-02-03T21:59:46.829Z,4.20
2023-02-03T22:02:39.731Z,4.70
2023-02-03T22:05:17.096Z,4.20
2023-02-03T22:07:46.507Z,3.50
2023-02-03T22:10:17.622Z,3.70
2023-02-03T22:12:46.949Z,4.50
2023-02-03T22:15:16.078Z,3.20
2023-02-03T22:17:48.280Z,3.50
2023-02-03T22:20:17.988Z,3.30
2023-02-03T22:22:46.966Z,3.50
2023-02-03T22:25:16.206Z,3.40
2023-02-03T22:27:45.085Z,3.50
2023-02-03T22:30:14.711Z,3.50
2023-02-03T22:32:44.775Z,3.80
2023-02-03T22:35:14.259Z,3.50
2023-02-03T22:37:42.478Z,3.20
2023-02-03T22:40:12.721Z,6.40
2023-02-03T22:42:41.594Z,3.70
2023-02-03T22:45:09.908Z,3.40
2023-02-03T22:47:38.856Z,3.40
2023-02-03T22:50:07.686Z,3.20
2023-02-03T22:52:36.091Z,3.50
2023-02-03T22:55:10.974Z,3.90
2023-02-03T22:57:39.363Z,4.00
2023-02-03T23:00:11.479Z,4.20
2023-02-03T23:02:40.286Z,3.50
2023-02-03T23:05:09.196Z,4.00
2023-02-03T23:07:37.843Z,3.20
2023-02-03T23:10:08.826Z,3.60
2023-02-03T23:12:39.726Z,3.80
2023-02-03T23:15:09.644Z,3.00
2023-02-03T23:17:38.333Z,3.00
2023-02-03T23:20:09.451Z,3.30
2023-02-03T23:22:38.047Z,3.00
2023-02-03T23:25:06.415Z,3.30
2023-02-03T23:27:34.900Z,4.00
2023-02-03T23:30:05.240Z,4.00
2023-02-03T23:32:33.990Z,3.40
2023-02-03T23:35:21.624Z,3.60
2023-02-03T23:37:50.373Z,3.50
2023-02-03T23:40:18.479Z,3.80
2023-02-03T23:42:47.086Z,3.10
2023-02-03T23:45:15.718Z,3.30
2023-02-03T23:47:44.265Z,5.70
2023-02-03T23:50:14.898Z,3.60
2023-02-03T23:52:43.006Z,3.40
2023-02-03T23:55:13.702Z,3.20
2023-02-03T23:57:43.354Z,3.70
